createdAt,value
2023-04-02T00:01:27.999Z,3.60
2023-04-02T00:04:14.793Z,2.70
2023-04-02T00:06:47.351Z,3.07
2023-04-02T00:09:25.893Z,2.72
2023-04-02T00:11:57.875Z,2.80
2023-04-02T00:14:28.650Z,3.08
2023-04-02T00:16:58.802Z,3.07
2023-04-02T00:19:31.750Z,3.30
2023-04-02T00:22:01.655Z,2.40
2023-04-02T00:24:30.951Z,3.33
2023-04-02T00:27:03.246Z,2.83
2023-04-02T00:29:32.630Z,2.67
2023-04-02T00:32:02.650Z,3.13
2023-04-02T00:34:35.100Z,3.53
2023-04-02T00:37:04.966Z,3.38
2023-04-02T00:39:38.554Z,3.07
2023-04-02T00:42:10.493Z,2.50
2023-04-02T00:44:42.901Z,3.28
2023-04-02T00:47:17.270Z,2.88
2023-04-02T00:49:47.133Z,2.53
2023-04-02T00:52:18.000Z,2.37
2023-04-02T00:54:49.847Z,2.37
2023-04-02T00:57:25.654Z,2.30
2023-04-02T00:59:57.816Z,2.93
2023-04-02T01:02:29.130Z,2.58
2023-04-02T01:05:02.834Z,2.40
2023-04-02T01:07:47.575Z,2.20
2023-04-02T01:10:25.532Z,2.00
2023-04-02T01:13:02.420Z,2.10
2023-04-02T01:15:33.658Z,2.27
2023-04-02T01:18:08.295Z,2.27
2023-04-02T01:20:52.683Z,2.50
2023-04-02T01:23:25.295Z,2.00
2023-04-02T01:25:58.084Z,2.15
2023-04-02T01:31:00.241Z,2.20
2023-04-02T01:33:31.811Z,2.20
2023-04-02T01:36:06.351Z,1.97
2023-04-02T01:38:38.832Z,2.30
2023-04-02T01:41:11.790Z,2.28
2023-04-02T01:43:45.504Z,2.13
2023-04-02T01:46:29.793Z,2.27
2023-04-02T01:48:59.580Z,2.20
2023-04-02T01:51:30.636Z,1.97
2023-04-02T01:54:01.776Z,2.30
2023-04-02T01:56:31.603Z,1.93
2023-04-02T01:59:01.475Z,1.60
2023-04-02T02:01:36.249Z,1.80
2023-04-02T02:04:05.692Z,1.83
2023-04-02T02:06:35.022Z,1.60
2023-04-02T02:09:07.278Z,1.70
2023-04-02T02:14:12.138Z,2.00
2023-04-02T02:16:44.517Z,1.87
2023-04-02T02:19:21.373Z,2.00
2023-04-02T02:21:52.706Z,1.73
2023-04-02T02:24:23.748Z,1.57
2023-04-02T02:26:57.029Z,1.70
2023-04-02T02:29:27.208Z,1.70
2023-04-02T02:32:00.626Z,1.80
2023-04-02T02:34:33.995Z,2.00
2023-04-02T02:37:07.233Z,1.63
2023-04-02T02:39:37.887Z,1.60
2023-04-02T02:42:08.906Z,1.60
2023-04-02T02:44:39.948Z,1.90
2023-04-02T02:47:14.099Z,1.50
2023-04-02T02:49:44.859Z,1.67
2023-04-02T02:52:19.725Z,1.60
2023-04-02T02:55:06.262Z,1.80
2023-04-02T02:57:49.991Z,1.80
2023-04-02T03:00:21.112Z,2.00
2023-04-02T03:02:55.139Z,1.30
2023-04-02T03:05:26.950Z,1.57
2023-04-02T03:08:01.445Z,1.77
2023-04-02T03:10:35.648Z,1.55
2023-04-02T03:15:36.926Z,1.43
2023-04-02T03:18:13.935Z,1.67
2023-04-02T03:20:47.882Z,1.40
2023-04-02T03:23:20.593Z,1.90
2023-04-02T03:25:53.022Z,1.60
2023-04-02T03:28:23.775Z,1.40
2023-04-02T03:30:55.816Z,1.80
2023-04-02T03:33:30.590Z,1.57
2023-04-02T03:36:02.704Z,1.20
2023-04-02T03:38:34.542Z,1.52
2023-04-02T03:41:06.245Z,1.40
2023-04-02T03:43:39.468Z,1.98
2023-04-02T03:46:14.100Z,2.30
2023-04-02T03:48:48.694Z,1.60
2023-04-02T03:51:21.838Z,1.50
2023-04-02T03:56:28.599Z,1.43
2023-04-02T03:59:04.605Z,1.57
2023-04-02T04:01:36.346Z,1.60
2023-04-02T04:04:11.715Z,1.37
2023-04-02T04:06:44.308Z,1.37
2023-04-02T04:09:18.143Z,1.50
2023-04-02T04:11:48.574Z,1.67
2023-04-02T04:14:19.574Z,1.23
2023-04-02T04:16:53.887Z,1.30
2023-04-02T04:19:33.928Z,1.60
2023-04-02T04:22:11.479Z,1.60
2023-04-02T04:24:45.701Z,1.47
2023-04-02T04:27:21.190Z,1.80
2023-04-02T04:29:54.979Z,1.63
2023-04-02T04:32:32.219Z,1.40
2023-04-02T04:35:11.684Z,1.80
2023-04-02T04:37:43.910Z,1.37
2023-04-02T04:40:19.173Z,1.50
2023-04-02T04:42:51.372Z,1.40
2023-04-02T04:45:32.969Z,1.77
2023-04-02T04:48:04.579Z,1.30
2023-04-02T04:50:38.280Z,1.83
2023-04-02T04:53:08.866Z,1.60
2023-04-02T04:55:40.495Z,1.10
2023-04-02T04:58:16.624Z,1.30
2023-04-02T05:00:50.275Z,1.27
2023-04-02T05:03:23.787Z,1.33
2023-04-02T05:05:57.366Z,1.10
2023-04-02T05:08:29.517Z,1.80
2023-04-02T05:11:00.772Z,1.17
2023-04-02T05:13:34.281Z,1.20
2023-04-02T05:16:07.495Z,1.80
2023-04-02T05:18:39.229Z,1.67
2023-04-02T05:21:17.167Z,1.27
2023-04-02T05:23:50.008Z,1.30
2023-04-02T05:26:21.488Z,1.20
2023-04-02T05:28:55.885Z,1.47
2023-04-02T05:31:28.105Z,1.37
2023-04-02T05:33:59.056Z,1.40
2023-04-02T05:36:32.530Z,1.57
2023-04-02T05:39:04.331Z,1.53
2023-04-02T05:41:42.138Z,1.20
2023-04-02T05:44:14.959Z,1.23
2023-04-02T05:46:48.667Z,1.13
2023-04-02T05:49:22.037Z,1.30
2023-04-02T05:51:57.837Z,1.30
2023-04-02T05:54:29.616Z,1.00
2023-04-02T05:57:03.102Z,1.27
2023-04-02T05:59:34.747Z,1.40
2023-04-02T06:02:05.357Z,1.63
2023-04-02T06:04:41.571Z,1.50
2023-04-02T06:07:17.087Z,1.10
2023-04-02T06:09:53.044Z,1.33
2023-04-02T06:12:26.399Z,1.67
2023-04-02T06:14:56.558Z,1.10
2023-04-02T06:17:30.077Z,1.17
2023-04-02T06:20:01.929Z,1.20
2023-04-02T06:22:38.336Z,1.20
2023-04-02T06:25:14.173Z,1.30
2023-04-02T06:27:45.790Z,1.30
2023-04-02T06:30:19.720Z,1.30
2023-04-02T06:32:52.130Z,1.10
2023-04-02T06:35:22.783Z,1.17
2023-04-02T06:38:08.387Z,1.20
2023-04-02T06:40:42.586Z,1.30
2023-04-02T06:43:21.782Z,1.23
2023-04-02T06:46:10.095Z,1.37
2023-04-02T06:49:18.841Z,1.40
2023-04-02T06:51:51.245Z,1.50
2023-04-02T06:54:24.019Z,1.53
2023-04-02T06:56:58.871Z,1.33
2023-04-02T06:59:33.171Z,1.60
2023-04-02T07:02:07.044Z,1.20
2023-04-02T07:04:36.827Z,1.40
2023-04-02T07:07:06.212Z,1.40
2023-04-02T07:09:42.522Z,1.37
2023-04-02T07:12:14.064Z,1.35
2023-04-02T07:14:48.014Z,2.08
2023-04-02T07:17:19.580Z,1.70
2023-04-02T07:19:49.818Z,1.20
2023-04-02T07:22:21.695Z,1.42
2023-04-02T07:25:03.508Z,1.23
2023-04-02T07:27:33.354Z,1.75
2023-04-02T07:30:02.700Z,1.60
2023-04-02T07:32:32.086Z,1.87
2023-04-02T07:35:01.553Z,1.10
2023-04-02T07:37:30.976Z,1.50
2023-04-02T07:40:04.061Z,1.50
2023-04-02T07:42:33.451Z,1.80
2023-04-02T07:45:05.792Z,1.37
2023-04-02T07:47:35.487Z,1.77
2023-04-02T07:50:05.176Z,1.30
2023-04-02T07:52:34.456Z,1.50
2023-04-02T07:55:06.760Z,1.73
2023-04-02T07:57:39.197Z,1.50
2023-04-02T08:00:10.459Z,1.70
2023-04-02T08:02:41.968Z,1.17
2023-04-02T08:05:12.211Z,1.33
2023-04-02T08:07:41.891Z,1.10
2023-04-02T08:10:15.365Z,1.40
2023-04-02T08:12:44.967Z,1.40
2023-04-02T08:15:17.191Z,1.10
2023-04-02T08:17:48.146Z,1.70
2023-04-02T08:20:21.016Z,1.43
2023-04-02T08:22:51.531Z,1.20
2023-04-02T08:25:24.255Z,1.33
2023-04-02T08:31:15.299Z,1.30
2023-04-02T08:34:43.355Z,1.23
2023-04-02T08:38:14.773Z,1.30
2023-04-02T08:41:47.888Z,1.60
2023-04-02T08:45:24.957Z,1.50
2023-04-02T08:48:57.175Z,1.17
2023-04-02T08:52:27.226Z,1.60
2023-04-02T08:56:00.134Z,1.37
2023-04-02T08:59:35.784Z,1.30
2023-04-02T09:03:30.515Z,1.23
2023-04-02T09:06:49.951Z,1.37
2023-04-02T09:09:58.343Z,1.63
2023-04-02T09:13:16.713Z,1.80
2023-04-02T09:16:23.792Z,1.40
2023-04-02T09:19:29.214Z,1.30
2023-04-02T09:22:39.653Z,1.70
2023-04-02T09:25:57.480Z,1.33
2023-04-02T09:29:18.889Z,1.80
2023-04-02T09:32:34.521Z,1.40
2023-04-02T09:35:58.923Z,1.40
2023-04-02T09:39:06.656Z,1.57
2023-04-02T09:42:10.597Z,1.70
2023-04-02T09:45:17.361Z,1.37
2023-04-02T09:48:25.216Z,1.23
2023-04-02T09:51:36.928Z,1.00
2023-04-02T09:54:42.713Z,1.20
2023-04-02T09:57:52.078Z,1.60
2023-04-02T10:00:56.956Z,1.70
2023-04-02T10:03:59.439Z,1.63
2023-04-02T10:07:00.685Z,1.42
2023-04-02T10:10:02.719Z,1.67
2023-04-02T10:13:05.241Z,1.20
2023-04-02T10:16:14.141Z,1.50
2023-04-02T10:19:21.602Z,1.30
2023-04-02T10:22:22.601Z,1.50
2023-04-02T10:25:24.057Z,1.20
2023-04-02T10:28:30.980Z,1.30
2023-04-02T10:31:41.756Z,1.60
2023-04-02T10:34:46.703Z,1.10
2023-04-02T10:38:17.235Z,1.50
2023-04-02T10:40:50.573Z,1.40
2023-04-02T10:43:34.823Z,1.30
2023-04-02T10:46:09.521Z,1.20
2023-04-02T10:48:43.231Z,1.20
2023-04-02T10:51:16.886Z,1.47
2023-04-02T10:53:50.208Z,1.37
2023-04-02T10:56:19.662Z,1.60
2023-04-02T10:58:54.212Z,1.77
2023-04-02T11:01:29.772Z,1.20
2023-04-02T11:04:02.635Z,1.20
2023-04-02T11:06:35.100Z,1.25
2023-04-02T11:09:06.390Z,1.30
2023-04-02T11:11:38.740Z,1.20
2023-04-02T11:14:09.309Z,1.50
2023-04-02T11:16:44.668Z,1.37
2023-04-02T11:19:25.130Z,1.50
2023-04-02T11:21:59.865Z,1.33
2023-04-02T11:24:37.620Z,1.40
2023-04-02T11:27:08.437Z,1.37
2023-04-02T11:29:39.186Z,1.70
2023-04-02T11:32:30.164Z,1.33
2023-04-02T11:35:25.705Z,1.30
2023-04-02T11:37:55.446Z,1.90
2023-04-02T11:40:39.827Z,1.10
2023-04-02T11:43:23.976Z,1.40
2023-04-02T11:45:58.416Z,1.20
2023-04-02T11:48:36.333Z,1.20
2023-04-02T11:51:13.063Z,1.43
2023-04-02T11:53:45.073Z,1.70
2023-04-02T11:56:21.999Z,1.83
2023-04-02T11:58:56.801Z,1.53
2023-04-02T12:01:44.153Z,1.57
2023-04-02T12:04:26.808Z,1.20
2023-04-02T12:07:06.550Z,1.60
2023-04-02T12:12:20.596Z,1.40
2023-04-02T12:14:50.547Z,1.13
2023-04-02T12:17:21.713Z,1.20
2023-04-02T12:19:56.044Z,1.97
2023-04-02T12:22:25.845Z,1.37
2023-04-02T12:24:57.306Z,1.23
2023-04-02T12:27:28.151Z,1.00
2023-04-02T12:29:57.906Z,1.60
2023-04-02T12:32:30.021Z,1.40
2023-04-02T12:35:06.600Z,1.13
2023-04-02T12:37:35.876Z,1.13
2023-04-02T12:40:09.228Z,1.00
2023-04-02T12:42:39.180Z,1.65
2023-04-02T12:45:09.256Z,1.30
2023-04-02T12:47:38.616Z,1.02
2023-04-02T12:50:17.475Z,1.38
2023-04-02T12:52:47.433Z,1.02
2023-04-02T12:55:19.484Z,1.40
2023-04-02T12:57:50.193Z,1.42
2023-04-02T13:00:36.174Z,1.25
2023-04-02T13:03:19.157Z,1.60
2023-04-02T13:05:52.338Z,1.48
2023-04-02T13:08:22.442Z,1.10
2023-04-02T13:10:55.746Z,1.23
2023-04-02T13:13:28.004Z,1.20
2023-04-02T13:16:08.737Z,1.50
2023-04-02T13:18:39.378Z,1.02
2023-04-02T13:21:23.856Z,1.13
2023-04-02T13:23:56.067Z,1.30
2023-04-02T13:26:27.307Z,1.23
2023-04-02T13:29:00.182Z,1.27
2023-04-02T13:31:30.965Z,1.23
2023-04-02T13:34:00.526Z,1.35
2023-04-02T13:36:30.004Z,1.05
2023-04-02T13:39:02.712Z,1.40
2023-04-02T13:44:02.459Z,1.00
2023-04-02T13:46:32.713Z,0.88
2023-04-02T13:49:02.139Z,1.00
2023-04-02T13:51:37.250Z,0.90
2023-04-02T13:54:11.898Z,1.20
2023-04-02T13:56:41.467Z,1.10
2023-04-02T13:59:10.789Z,1.10
2023-04-02T14:01:40.168Z,1.00
2023-04-02T14:04:10.155Z,1.20
2023-04-02T14:06:54.794Z,1.42
2023-04-02T14:09:32.344Z,1.02
2023-04-02T14:12:08.158Z,1.02
2023-04-02T14:14:45.128Z,1.20
2023-04-02T14:17:19.706Z,1.08
2023-04-02T14:19:57.826Z,1.08
2023-04-02T14:22:34.567Z,0.90
2023-04-02T14:25:11.133Z,0.90
2023-04-02T14:27:43.970Z,0.98
2023-04-02T14:30:17.370Z,1.10
2023-04-02T14:32:51.913Z,1.00
2023-04-02T14:35:25.097Z,1.30
2023-04-02T14:37:58.506Z,0.90
2023-04-02T14:40:35.052Z,0.82
2023-04-02T14:43:05.910Z,0.90
2023-04-02T14:45:43.541Z,0.70
2023-04-02T14:48:19.549Z,1.13
2023-04-02T14:50:49.034Z,0.90
2023-04-02T14:53:22.632Z,1.00
2023-04-02T14:55:55.574Z,1.20
2023-04-02T14:58:27.079Z,0.80
2023-04-02T15:00:59.549Z,1.05
2023-04-02T15:03:31.951Z,0.90
2023-04-02T15:06:03.114Z,1.33
2023-04-02T15:08:35.364Z,1.10
2023-04-02T15:11:10.939Z,0.90
2023-04-02T15:13:42.475Z,1.30
2023-04-02T15:18:45.764Z,1.10
2023-04-02T15:34:42.759Z,1.45
2023-04-02T15:37:18.755Z,0.85
2023-04-02T15:39:58.292Z,1.37
2023-04-02T15:42:31.160Z,1.00
2023-04-02T15:45:15.430Z,1.43
2023-04-02T15:47:50.844Z,1.40
2023-04-02T15:50:30.335Z,1.30
2023-04-02T15:53:04.001Z,1.10
2023-04-02T15:55:37.454Z,1.30
2023-04-02T15:58:23.502Z,1.30
2023-04-02T16:00:57.060Z,1.10
2023-04-02T16:03:48.799Z,1.17
2023-04-02T16:06:28.235Z,1.20
2023-04-02T16:09:01.913Z,1.40
2023-04-02T16:11:31.350Z,1.03
2023-04-02T16:14:07.643Z,0.90
2023-04-02T16:16:38.288Z,1.13
2023-04-02T16:19:16.387Z,1.20
2023-04-02T16:21:49.751Z,0.83
2023-04-02T16:24:19.055Z,1.10
2023-04-02T16:26:52.352Z,0.90
2023-04-02T16:29:56.953Z,0.67
2023-04-02T16:32:38.833Z,1.10
2023-04-02T16:35:41.071Z,1.00
2023-04-02T16:38:09.535Z,1.00
2023-04-02T16:43:14.255Z,1.00
2023-04-02T16:45:46.268Z,0.93
2023-04-02T16:48:21.978Z,1.20
2023-04-02T16:50:55.948Z,1.10
2023-04-02T16:53:31.674Z,1.23
2023-04-02T16:56:09.905Z,1.23
2023-04-02T16:58:46.613Z,1.00
2023-04-02T17:01:21.788Z,1.00
2023-04-02T17:04:03.470Z,1.30
2023-04-02T17:06:38.206Z,1.37
2023-04-02T17:09:10.831Z,1.60
2023-04-02T17:11:43.048Z,1.50
2023-04-02T17:14:16.943Z,1.20
2023-04-02T17:16:47.482Z,1.07
2023-04-02T17:19:20.961Z,2.07
2023-04-02T17:21:52.147Z,1.20
2023-04-02T17:24:24.677Z,1.33
2023-04-02T17:26:55.970Z,1.30
2023-04-02T17:29:27.010Z,1.50
2023-04-02T17:31:58.263Z,1.40
2023-04-02T17:34:31.314Z,1.20
2023-04-02T17:37:04.994Z,1.00
2023-04-02T17:39:36.860Z,0.97
2023-04-02T17:42:11.275Z,1.03
2023-04-02T17:50:32.219Z,1.20
2023-04-02T17:55:40.583Z,1.07
2023-04-02T17:58:15.700Z,1.73
2023-04-02T18:00:49.079Z,1.10
2023-04-02T18:03:26.905Z,2.00
2023-04-02T18:06:02.110Z,1.40
2023-04-02T18:08:35.981Z,1.10
2023-04-02T18:11:09.686Z,1.40
2023-04-02T18:13:39.412Z,1.17
2023-04-02T18:16:26.979Z,1.60
2023-04-02T18:19:03.539Z,1.80
2023-04-02T18:21:39.440Z,1.50
2023-04-02T18:24:14.762Z,1.50
2023-04-02T18:26:49.582Z,1.33
2023-04-02T18:29:23.217Z,1.47
2023-04-02T18:31:55.204Z,1.57
2023-04-02T18:34:39.907Z,1.38
2023-04-02T18:37:21.803Z,1.30
2023-04-02T18:39:56.849Z,1.33
2023-04-02T18:42:33.677Z,1.40
2023-04-02T18:45:06.988Z,1.90
2023-04-02T18:47:38.014Z,1.93
2023-04-02T18:50:15.930Z,1.70
2023-04-02T18:52:48.021Z,1.47
2023-04-02T18:55:18.497Z,1.13
2023-04-02T18:57:49.225Z,1.20
2023-04-02T19:00:24.149Z,1.07
2023-04-02T19:02:54.759Z,1.60
2023-04-02T19:05:26.438Z,1.23
2023-04-02T19:08:02.587Z,1.40
2023-04-02T19:10:34.048Z,1.40
2023-04-02T19:13:16.740Z,1.47
2023-04-02T19:16:04.532Z,1.13
2023-04-02T19:18:41.613Z,1.70
2023-04-02T19:21:15.866Z,1.50
2023-04-02T19:23:55.276Z,2.40
2023-04-02T19:26:28.769Z,1.60
2023-04-02T19:29:01.787Z,1.60
2023-04-02T19:31:34.711Z,2.17
2023-04-02T19:34:10.654Z,1.33
2023-04-02T19:36:47.519Z,1.30
2023-04-02T19:39:35.996Z,1.40
2023-04-02T19:42:11.036Z,1.10
2023-04-02T19:44:44.228Z,1.20
2023-04-02T19:47:14.619Z,1.70
2023-04-02T19:49:43.977Z,1.40
2023-04-02T19:52:13.355Z,2.43
2023-04-02T19:54:45.331Z,1.30
2023-04-02T19:57:15.665Z,1.50
2023-04-02T19:59:45.150Z,1.80
2023-04-02T20:02:14.455Z,1.60
2023-04-02T20:04:43.767Z,1.60
2023-04-02T20:07:13.088Z,1.70
2023-04-02T20:09:45.027Z,1.00
2023-04-02T20:12:14.349Z,1.23
2023-04-02T20:14:43.656Z,1.30
2023-04-02T20:17:13.112Z,1.07
2023-04-02T20:19:42.398Z,1.23
2023-04-02T20:22:11.762Z,1.53
2023-04-02T20:24:42.395Z,1.23
2023-04-02T20:27:14.309Z,1.80
2023-04-02T20:29:43.892Z,1.35
2023-04-02T20:32:13.264Z,1.10
2023-04-02T20:34:42.639Z,1.23
2023-04-02T20:37:12.576Z,1.40
2023-04-02T20:39:42.071Z,1.40
2023-04-02T20:42:14.390Z,0.90
2023-04-02T20:44:43.713Z,1.33
2023-04-02T20:47:13.479Z,1.20
2023-04-02T20:49:42.773Z,1.27
2023-04-02T20:52:12.183Z,1.10
2023-04-02T20:54:41.764Z,1.20
2023-04-02T20:57:11.157Z,1.10
2023-04-02T20:59:43.101Z,1.30
2023-04-02T21:02:13.219Z,1.33
2023-04-02T21:04:42.547Z,1.50
2023-04-02T21:07:11.881Z,1.17
2023-04-02T21:09:41.216Z,1.23
2023-04-02T21:12:11.672Z,0.87
2023-04-02T21:14:43.753Z,1.33
2023-04-02T21:17:13.057Z,1.23
2023-04-02T21:19:42.346Z,1.37
2023-04-02T21:22:11.707Z,1.10
2023-04-02T21:24:41.068Z,1.20
2023-04-02T21:27:10.450Z,0.90
2023-04-02T21:29:39.760Z,1.37
2023-04-02T21:32:20.692Z,1.30
2023-04-02T21:34:50.887Z,1.30
2023-04-02T21:37:20.222Z,1.40
2023-04-02T21:39:49.514Z,1.60
2023-04-02T21:42:18.931Z,1.17
2023-04-02T21:44:48.267Z,1.40
2023-04-02T21:47:20.165Z,1.50
2023-04-02T21:49:49.540Z,1.00
2023-04-02T21:52:18.955Z,1.30
2023-04-02T21:54:48.285Z,1.30
2023-04-02T21:57:18.970Z,1.17
2023-04-02T21:59:48.405Z,1.43
2023-04-02T22:02:20.892Z,1.40
2023-04-02T22:04:52.128Z,1.38
2023-04-02T22:07:21.446Z,1.70
2023-04-02T22:09:50.804Z,1.20
2023-04-02T22:12:20.141Z,1.20
2023-04-02T22:14:49.434Z,1.20
2023-04-02T22:17:21.333Z,1.10
2023-04-02T22:19:50.849Z,1.35
2023-04-02T22:22:20.160Z,1.40
2023-04-02T22:24:49.452Z,1.20
2023-04-02T22:27:18.739Z,2.87
2023-04-02T22:29:48.040Z,1.27
2023-04-02T22:32:17.408Z,1.23
2023-04-02T22:34:49.407Z,1.27
2023-04-02T22:37:18.840Z,1.30
2023-04-02T22:39:48.201Z,1.30
2023-04-02T22:42:17.525Z,1.63
2023-04-02T22:44:46.916Z,1.30
2023-04-02T22:47:16.165Z,1.70
2023-04-02T22:49:45.543Z,1.40
2023-04-02T22:52:17.475Z,1.53
2023-04-02T22:54:46.754Z,1.50
2023-04-02T22:57:16.852Z,1.20
2023-04-02T22:59:46.179Z,1.67
2023-04-02T23:02:15.558Z,1.50
2023-04-02T23:04:44.969Z,1.70
2023-04-02T23:07:16.970Z,1.50
2023-04-02T23:09:46.534Z,1.17
2023-04-02T23:12:15.916Z,1.30
2023-04-02T23:14:45.238Z,1.30
2023-04-02T23:17:14.584Z,1.20
2023-04-02T23:19:44.029Z,1.33
2023-04-02T23:22:13.317Z,1.20
2023-04-02T23:24:45.332Z,1.23
2023-04-02T23:27:14.686Z,1.50
2023-04-02T23:29:44.021Z,2.00
2023-04-02T23:32:13.385Z,1.50
2023-04-02T23:34:42.671Z,1.60
2023-04-02T23:37:12.058Z,1.33
2023-04-02T23:39:41.380Z,1.17
2023-04-02T23:42:13.740Z,1.20
2023-04-02T23:44:43.107Z,1.48
2023-04-02T23:47:12.504Z,1.27
2023-04-02T23:49:47.588Z,1.10
2023-04-02T23:52:17.231Z,1.27
2023-04-02T23:54:46.569Z,1.40
2023-04-02T23:57:18.509Z,1.20
2023-04-02T23:59:47.814Z,1.38
